sensor_id;sensor_type;location;lat;lon;timestamp;P1;durP1;ratioP1;P2;durP2;ratioP2
33553;SDS011;19885;42.208;24.952;2023-04-03T00:03:56;4.93;;;3.17;;
33553;SDS011;19885;42.208;24.952;2023-04-03T04:06:27;6.93;;;3.63;;
33553;SDS011;19885;42.208;24.952;2023-04-03T04:08:53;4.73;;;3.07;;
33553;SDS011;19885;42.208;24.952;2023-04-03T04:11:19;3.07;;;2.70;;
33553;SDS011;19885;42.208;24.952;2023-04-03T04:13:45;4.40;;;3.10;;
33553;SDS011;19885;42.208;24.952;2023-04-03T04:16:11;5.80;;;2.93;;
33553;SDS011;19885;42.208;24.952;2023-04-03T04:18:36;5.13;;;2.87;;
33553;SDS011;19885;42.208;24.952;2023-04-03T04:21:02;4.67;;;3.00;;
33553;SDS011;19885;42.208;24.952;2023-04-03T04:23:27;7.57;;;3.37;;
33553;SDS011;19885;42.208;24.952;2023-04-03T04:25:53;3.27;;;2.90;;
33553;SDS011;19885;42.208;24.952;2023-04-03T04:28:22;7.47;;;2.40;;
33553;SDS011;19885;42.208;24.952;2023-04-03T04:30:48;4.43;;;3.07;;
33553;SDS011;19885;42.208;24.952;2023-04-03T04:33:13;9.10;;;3.07;;
33553;SDS011;19885;42.208;24.952;2023-04-03T04:35:41;5.10;;;3.20;;
33553;SDS011;19885;42.208;24.952;2023-04-03T04:38:09;7.40;;;3.13;;
33553;SDS011;19885;42.208;24.952;2023-04-03T04:40:35;4.77;;;3.50;;
33553;SDS011;19885;42.208;24.952;2023-04-03T04:43:02;5.33;;;3.50;;
33553;SDS011;19885;42.208;24.952;2023-04-03T04:45:28;5.47;;;3.80;;
33553;SDS011;19885;42.208;24.952;2023-04-03T04:47:57;5.50;;;3.50;;
33553;SDS011;19885;42.208;24.952;2023-04-03T04:50:23;8.30;;;3.70;;
33553;SDS011;19885;42.208;24.952;2023-04-03T04:52:48;17.83;;;8.00;;
33553;SDS011;19885;42.208;24.952;2023-04-03T04:55:14;21.07;;;8.57;;
33553;SDS011;19885;42.208;24.952;2023-04-03T04:57:40;7.37;;;4.87;;
33553;SDS011;19885;42.208;24.952;2023-04-03T05:00:05;5.90;;;4.17;;
33553;SDS011;19885;42.208;24.952;2023-04-03T05:02:32;4.17;;;3.27;;
33553;SDS011;19885;42.208;24.952;2023-04-03T05:04:58;3.27;;;2.93;;
33553;SDS011;19885;42.208;24.952;2023-04-03T05:07:25;4.33;;;2.50;;
33553;SDS011;19885;42.208;24.952;2023-04-03T05:09:50;4.57;;;2.83;;
33553;SDS011;19885;42.208;24.952;2023-04-03T05:12:16;4.00;;;3.47;;
33553;SDS011;19885;42.208;24.952;2023-04-03T05:14:42;6.67;;;2.73;;
33553;SDS011;19885;42.208;24.952;2023-04-03T05:17:07;8.70;;;2.80;;
33553;SDS011;19885;42.208;24.952;2023-04-03T05:19:33;3.87;;;3.10;;
33553;SDS011;19885;42.208;24.952;2023-04-03T05:21:58;3.33;;;2.63;;
33553;SDS011;19885;42.208;24.952;2023-04-03T05:24:24;3.07;;;2.70;;
33553;SDS011;19885;42.208;24.952;2023-04-03T05:26:51;5.37;;;2.23;;
33553;SDS011;19885;42.208;24.952;2023-04-03T05:29:17;3.20;;;2.30;;
33553;SDS011;19885;42.208;24.952;2023-04-03T05:31:42;4.47;;;2.30;;
33553;SDS011;19885;42.208;24.952;2023-04-03T05:34:08;4.30;;;2.33;;
33553;SDS011;19885;42.208;24.952;2023-04-03T05:36:34;2.97;;;2.23;;
33553;SDS011;19885;42.208;24.952;2023-04-03T05:39:00;2.63;;;1.80;;
33553;SDS011;19885;42.208;24.952;2023-04-03T05:41:25;2.00;;;1.77;;
33553;SDS011;19885;42.208;24.952;2023-04-03T05:43:51;2.37;;;2.00;;
33553;SDS011;19885;42.208;24.952;2023-04-03T05:46:18;3.37;;;2.67;;
33553;SDS011;19885;42.208;24.952;2023-04-03T05:48:46;1.67;;;1.57;;
33553;SDS011;19885;42.208;24.952;2023-04-03T05:51:18;1.90;;;1.50;;
33553;SDS011;19885;42.208;24.952;2023-04-03T05:53:48;1.90;;;1.40;;
33553;SDS011;19885;42.208;24.952;2023-04-03T05:56:20;2.00;;;1.73;;
33553;SDS011;19885;42.208;24.952;2023-04-03T05:58:45;1.80;;;1.53;;
33553;SDS011;19885;42.208;24.952;2023-04-03T06:01:11;1.53;;;1.27;;
33553;SDS011;19885;42.208;24.952;2023-04-03T06:03:36;1.97;;;1.37;;
33553;SDS011;19885;42.208;24.952;2023-04-03T06:06:03;2.77;;;1.50;;
33553;SDS011;19885;42.208;24.952;2023-04-03T06:08:29;3.07;;;2.07;;
33553;SDS011;19885;42.208;24.952;2023-04-03T06:10:55;3.43;;;2.30;;
33553;SDS011;19885;42.208;24.952;2023-04-03T06:13:21;3.23;;;2.63;;
33553;SDS011;19885;42.208;24.952;2023-04-03T06:15:47;2.20;;;1.77;;
33553;SDS011;19885;42.208;24.952;2023-04-03T06:18:13;1.80;;;1.70;;
33553;SDS011;19885;42.208;24.952;2023-04-03T06:20:39;1.47;;;1.37;;
33553;SDS011;19885;42.208;24.952;2023-04-03T06:23:04;1.53;;;1.40;;
33553;SDS011;19885;42.208;24.952;2023-04-03T06:25:30;5.00;;;1.50;;
33553;SDS011;19885;42.208;24.952;2023-04-03T06:27:56;4.40;;;1.53;;
33553;SDS011;19885;42.208;24.952;2023-04-03T06:30:22;1.83;;;1.60;;
33553;SDS011;19885;42.208;24.952;2023-04-03T06:32:50;1.53;;;1.43;;
33553;SDS011;19885;42.208;24.952;2023-04-03T06:35:16;1.97;;;1.67;;
33553;SDS011;19885;42.208;24.952;2023-04-03T06:37:42;2.47;;;1.97;;
33553;SDS011;19885;42.208;24.952;2023-04-03T06:40:10;4.53;;;1.80;;
33553;SDS011;19885;42.208;24.952;2023-04-03T06:42:46;1.97;;;1.40;;
33553;SDS011;19885;42.208;24.952;2023-04-03T06:45:11;2.43;;;1.87;;
33553;SDS011;19885;42.208;24.952;2023-04-03T06:47:37;2.10;;;1.47;;
33553;SDS011;19885;42.208;24.952;2023-04-03T06:50:04;5.50;;;2.00;;
33553;SDS011;19885;42.208;24.952;2023-04-03T06:52:31;4.37;;;2.53;;
33553;SDS011;19885;42.208;24.952;2023-04-03T06:54:57;3.40;;;2.63;;
33553;SDS011;19885;42.208;24.952;2023-04-03T06:57:24;4.07;;;2.13;;
33553;SDS011;19885;42.208;24.952;2023-04-03T06:59:50;3.40;;;1.97;;
33553;SDS011;19885;42.208;24.952;2023-04-03T07:02:16;2.97;;;1.77;;
33553;SDS011;19885;42.208;24.952;2023-04-03T07:04:42;3.93;;;2.07;;
33553;SDS011;19885;42.208;24.952;2023-04-03T07:07:07;3.60;;;2.43;;
33553;SDS011;19885;42.208;24.952;2023-04-03T07:09:33;3.20;;;1.70;;
33553;SDS011;19885;42.208;24.952;2023-04-03T07:11:59;2.80;;;2.03;;
33553;SDS011;19885;42.208;24.952;2023-04-03T07:14:25;2.57;;;2.03;;
33553;SDS011;19885;42.208;24.952;2023-04-03T07:16:50;5.20;;;2.40;;
33553;SDS011;19885;42.208;24.952;2023-04-03T07:19:16;3.07;;;1.73;;
33553;SDS011;19885;42.208;24.952;2023-04-03T07:21:43;2.93;;;1.60;;
33553;SDS011;19885;42.208;24.952;2023-04-03T07:24:09;3.33;;;2.00;;
33553;SDS011;19885;42.208;24.952;2023-04-03T07:26:35;3.83;;;1.90;;
33553;SDS011;19885;42.208;24.952;2023-04-03T07:29:01;2.27;;;1.63;;
33553;SDS011;19885;42.208;24.952;2023-04-03T07:31:26;4.00;;;1.90;;
33553;SDS011;19885;42.208;24.952;2023-04-03T07:33:52;5.20;;;2.57;;
33553;SDS011;19885;42.208;24.952;2023-04-03T07:36:19;8.93;;;3.63;;
33553;SDS011;19885;42.208;24.952;2023-04-03T07:38:46;5.03;;;2.97;;
33553;SDS011;19885;42.208;24.952;2023-04-03T07:41:15;4.57;;;3.07;;
33553;SDS011;19885;42.208;24.952;2023-04-03T07:43:43;4.23;;;2.40;;
33553;SDS011;19885;42.208;24.952;2023-04-03T07:46:10;4.00;;;2.40;;
33553;SDS011;19885;42.208;24.952;2023-04-03T07:48:35;9.27;;;7.07;;
33553;SDS011;19885;42.208;24.952;2023-04-03T07:51:02;11.33;;;7.47;;
33553;SDS011;19885;42.208;24.952;2023-04-03T07:53:29;9.50;;;5.57;;
33553;SDS011;19885;42.208;24.952;2023-04-03T07:55:56;7.80;;;5.63;;
33553;SDS011;19885;42.208;24.952;2023-04-03T07:58:22;12.47;;;5.57;;
33553;SDS011;19885;42.208;24.952;2023-04-03T08:00:47;19.90;;;6.23;;
33553;SDS011;19885;42.208;24.952;2023-04-03T08:03:13;8.27;;;5.47;;
33553;SDS011;19885;42.208;24.952;2023-04-03T08:05:41;8.60;;;6.30;;
33553;SDS011;19885;42.208;24.952;2023-04-03T08:08:12;13.83;;;7.20;;
33553;SDS011;19885;42.208;24.952;2023-04-03T08:10:39;15.53;;;8.90;;
33553;SDS011;19885;42.208;24.952;2023-04-03T08:13:05;9.60;;;6.43;;
33553;SDS011;19885;42.208;24.952;2023-04-03T08:15:32;9.10;;;4.77;;
33553;SDS011;19885;42.208;24.952;2023-04-03T08:17:58;13.07;;;8.77;;
33553;SDS011;19885;42.208;24.952;2023-04-03T08:20:25;18.60;;;7.97;;
33553;SDS011;19885;42.208;24.952;2023-04-03T08:22:52;13.50;;;8.00;;
33553;SDS011;19885;42.208;24.952;2023-04-03T08:25:17;10.90;;;6.40;;
33553;SDS011;19885;42.208;24.952;2023-04-03T08:27:43;9.67;;;5.50;;
33553;SDS011;19885;42.208;24.952;2023-04-03T08:30:10;11.93;;;6.33;;
33553;SDS011;19885;42.208;24.952;2023-04-03T08:32:36;14.87;;;6.80;;
33553;SDS011;19885;42.208;24.952;2023-04-03T08:35:02;13.37;;;6.40;;
33553;SDS011;19885;42.208;24.952;2023-04-03T08:37:28;12.17;;;6.17;;
33553;SDS011;19885;42.208;24.952;2023-04-03T08:39:54;11.27;;;4.47;;
33553;SDS011;19885;42.208;24.952;2023-04-03T08:42:27;8.57;;;4.10;;
33553;SDS011;19885;42.208;24.952;2023-04-03T08:45:16;13.20;;;6.50;;
33553;SDS011;19885;42.208;24.952;2023-04-03T08:48:04;12.83;;;7.97;;
33553;SDS011;19885;42.208;24.952;2023-04-03T08:50:45;14.87;;;6.63;;
33553;SDS011;19885;42.208;24.952;2023-04-03T08:53:16;18.50;;;5.93;;
33553;SDS011;19885;42.208;24.952;2023-04-03T08:55:57;14.60;;;5.90;;
33553;SDS011;19885;42.208;24.952;2023-04-03T08:58:24;11.77;;;6.37;;
33553;SDS011;19885;42.208;24.952;2023-04-03T09:01:03;14.30;;;6.27;;
33553;SDS011;19885;42.208;24.952;2023-04-03T09:03:34;15.17;;;6.40;;
33553;SDS011;19885;42.208;24.952;2023-04-03T09:06:28;8.97;;;5.30;;
33553;SDS011;19885;42.208;24.952;2023-04-03T09:17:21;5.70;;;2.60;;
33553;SDS011;19885;42.208;24.952;2023-04-03T09:22:49;4.60;;;3.10;;
33553;SDS011;19885;42.208;24.952;2023-04-03T09:28:13;12.77;;;4.73;;
33553;SDS011;19885;42.208;24.952;2023-04-03T09:30:38;12.20;;;4.30;;
33553;SDS011;19885;42.208;24.952;2023-04-03T09:33:04;4.50;;;3.23;;
33553;SDS011;19885;42.208;24.952;2023-04-03T09:35:31;6.63;;;2.80;;
33553;SDS011;19885;42.208;24.952;2023-04-03T09:37:59;8.63;;;2.57;;
33553;SDS011;19885;42.208;24.952;2023-04-03T09:42:51;3.53;;;2.23;;
33553;SDS011;19885;42.208;24.952;2023-04-03T09:45:22;3.07;;;2.20;;
33553;SDS011;19885;42.208;24.952;2023-04-03T09:48:25;3.90;;;2.10;;
33553;SDS011;19885;42.208;24.952;2023-04-03T09:50:56;3.00;;;2.33;;
33553;SDS011;19885;42.208;24.952;2023-04-03T09:53:42;2.40;;;2.13;;
33553;SDS011;19885;42.208;24.952;2023-04-03T09:58:40;3.97;;;2.07;;
33553;SDS011;19885;42.208;24.952;2023-04-03T10:04:07;3.30;;;2.10;;
33553;SDS011;19885;42.208;24.952;2023-04-03T10:06:47;7.73;;;2.87;;
33553;SDS011;19885;42.208;24.952;2023-04-03T10:09:26;4.93;;;2.73;;
33553;SDS011;19885;42.208;24.952;2023-04-03T10:12:08;8.37;;;2.80;;
33553;SDS011;19885;42.208;24.952;2023-04-03T10:14:42;15.40;;;2.87;;
33553;SDS011;19885;42.208;24.952;2023-04-03T10:30:48;7.20;;;3.37;;
33553;SDS011;19885;42.208;24.952;2023-04-03T10:36:16;11.53;;;3.37;;
33553;SDS011;19885;42.208;24.952;2023-04-03T10:38:48;9.87;;;4.20;;
33553;SDS011;19885;42.208;24.952;2023-04-03T10:43:57;3.67;;;2.50;;
33553;SDS011;19885;42.208;24.952;2023-04-03T10:46:38;4.33;;;2.30;;
33553;SDS011;19885;42.208;24.952;2023-04-03T10:52:17;4.33;;;2.13;;
33553;SDS011;19885;42.208;24.952;2023-04-03T10:57:32;3.40;;;2.10;;
33553;SDS011;19885;42.208;24.952;2023-04-03T11:00:03;6.03;;;2.50;;
33553;SDS011;19885;42.208;24.952;2023-04-03T11:02:54;2.60;;;1.60;;
33553;SDS011;19885;42.208;24.952;2023-04-03T11:05:30;3.43;;;2.20;;
33553;SDS011;19885;42.208;24.952;2023-04-03T11:08:18;7.10;;;2.33;;
33553;SDS011;19885;42.208;24.952;2023-04-03T11:13:35;4.70;;;2.17;;
33553;SDS011;19885;42.208;24.952;2023-04-03T11:16:18;2.53;;;1.70;;
33553;SDS011;19885;42.208;24.952;2023-04-03T11:18:56;2.80;;;1.60;;
33553;SDS011;19885;42.208;24.952;2023-04-03T11:21:41;3.57;;;1.80;;
33553;SDS011;19885;42.208;24.952;2023-04-03T11:24:22;6.77;;;2.03;;
33553;SDS011;19885;42.208;24.952;2023-04-03T11:26:50;4.40;;;2.83;;
33553;SDS011;19885;42.208;24.952;2023-04-03T11:29:20;3.90;;;2.53;;
33553;SDS011;19885;42.208;24.952;2023-04-03T11:34:44;13.80;;;2.67;;
33553;SDS011;19885;42.208;24.952;2023-04-03T11:37:35;3.67;;;2.63;;
33553;SDS011;19885;42.208;24.952;2023-04-03T11:40:07;5.67;;;3.63;;
33553;SDS011;19885;42.208;24.952;2023-04-03T11:42:55;13.63;;;3.27;;
33553;SDS011;19885;42.208;24.952;2023-04-03T11:48:04;6.37;;;3.43;;
33553;SDS011;19885;42.208;24.952;2023-04-03T11:50:57;16.87;;;3.50;;
33553;SDS011;19885;42.208;24.952;2023-04-03T11:56:00;6.73;;;3.07;;
33553;SDS011;19885;42.208;24.952;2023-04-03T12:04:15;9.23;;;4.47;;
33553;SDS011;19885;42.208;24.952;2023-04-03T12:09:22;7.07;;;4.30;;
33553;SDS011;19885;42.208;24.952;2023-04-03T12:11:51;15.87;;;5.00;;
33553;SDS011;19885;42.208;24.952;2023-04-03T12:14:18;16.20;;;7.97;;
33553;SDS011;19885;42.208;24.952;2023-04-03T12:16:47;20.97;;;7.27;;
33553;SDS011;19885;42.208;24.952;2023-04-03T12:27:02;6.73;;;4.43;;
33553;SDS011;19885;42.208;24.952;2023-04-03T12:29:36;10.37;;;4.93;;
33553;SDS011;19885;42.208;24.952;2023-04-03T12:35:14;7.57;;;4.60;;
33553;SDS011;19885;42.208;24.952;2023-04-03T12:48:17;13.47;;;6.83;;
33553;SDS011;19885;42.208;24.952;2023-04-03T12:50:47;10.33;;;5.13;;
33553;SDS011;19885;42.208;24.952;2023-04-03T12:53:19;16.50;;;6.60;;
33553;SDS011;19885;42.208;24.952;2023-04-03T12:55:56;13.57;;;6.30;;
33553;SDS011;19885;42.208;24.952;2023-04-03T12:58:30;11.77;;;6.47;;
33553;SDS011;19885;42.208;24.952;2023-04-03T13:01:03;13.60;;;6.73;;
33553;SDS011;19885;42.208;24.952;2023-04-03T13:03:45;12.07;;;6.00;;
33553;SDS011;19885;42.208;24.952;2023-04-03T13:06:27;11.97;;;6.83;;
33553;SDS011;19885;42.208;24.952;2023-04-03T13:09:24;10.57;;;6.23;;
33553;SDS011;19885;42.208;24.952;2023-04-03T13:12:14;16.00;;;7.07;;
33553;SDS011;19885;42.208;24.952;2023-04-03T13:14:40;10.17;;;6.53;;
33553;SDS011;19885;42.208;24.952;2023-04-03T13:17:16;7.70;;;5.03;;
33553;SDS011;19885;42.208;24.952;2023-04-03T13:19:42;10.17;;;5.03;;
33553;SDS011;19885;42.208;24.952;2023-04-03T13:22:28;5.93;;;4.20;;
33553;SDS011;19885;42.208;24.952;2023-04-03T13:25:09;7.77;;;3.93;;
33553;SDS011;19885;42.208;24.952;2023-04-03T13:27:39;8.80;;;3.87;;
33553;SDS011;19885;42.208;24.952;2023-04-03T13:30:17;7.40;;;3.67;;
33553;SDS011;19885;42.208;24.952;2023-04-03T13:32:48;6.00;;;3.10;;
33553;SDS011;19885;42.208;24.952;2023-04-03T13:37:56;8.50;;;4.30;;
33553;SDS011;19885;42.208;24.952;2023-04-03T13:40:22;14.43;;;4.63;;
33553;SDS011;19885;42.208;24.952;2023-04-03T13:42:58;12.93;;;6.17;;
33553;SDS011;19885;42.208;24.952;2023-04-03T13:45:25;10.87;;;6.53;;
33553;SDS011;19885;42.208;24.952;2023-04-03T13:48:16;10.70;;;6.60;;
33553;SDS011;19885;42.208;24.952;2023-04-03T13:53:42;17.80;;;7.93;;
33553;SDS011;19885;42.208;24.952;2023-04-03T14:01:42;15.23;;;8.63;;
33553;SDS011;19885;42.208;24.952;2023-04-03T14:04:15;18.50;;;10.40;;
33553;SDS011;19885;42.208;24.952;2023-04-03T14:06:41;12.33;;;7.20;;
33553;SDS011;19885;42.208;24.952;2023-04-03T14:09:07;16.97;;;7.53;;
33553;SDS011;19885;42.208;24.952;2023-04-03T14:11:32;19.83;;;7.33;;
33553;SDS011;19885;42.208;24.952;2023-04-03T14:14:01;14.37;;;7.40;;
33553;SDS011;19885;42.208;24.952;2023-04-03T14:16:31;12.83;;;8.73;;
33553;SDS011;19885;42.208;24.952;2023-04-03T14:19:02;15.27;;;7.17;;
33553;SDS011;19885;42.208;24.952;2023-04-03T14:21:28;13.60;;;7.03;;
33553;SDS011;19885;42.208;24.952;2023-04-03T14:23:53;66.50;;;29.93;;
33553;SDS011;19885;42.208;24.952;2023-04-03T14:26:20;126.07;;;60.57;;
33553;SDS011;19885;42.208;24.952;2023-04-03T14:28:52;124.63;;;63.93;;
33553;SDS011;19885;42.208;24.952;2023-04-03T14:31:20;30.20;;;20.70;;
33553;SDS011;19885;42.208;24.952;2023-04-03T14:33:46;19.93;;;9.07;;
33553;SDS011;19885;42.208;24.952;2023-04-03T14:36:23;19.17;;;14.57;;
33553;SDS011;19885;42.208;24.952;2023-04-03T14:38:52;12.57;;;8.30;;
33553;SDS011;19885;42.208;24.952;2023-04-03T14:41:19;13.60;;;6.33;;
33553;SDS011;19885;42.208;24.952;2023-04-03T14:43:48;8.13;;;5.53;;
33553;SDS011;19885;42.208;24.952;2023-04-03T14:46:24;6.67;;;5.67;;
33553;SDS011;19885;42.208;24.952;2023-04-03T14:48:53;9.27;;;6.33;;
33553;SDS011;19885;42.208;24.952;2023-04-03T14:51:19;8.60;;;5.60;;
33553;SDS011;19885;42.208;24.952;2023-04-03T14:53:44;9.43;;;5.00;;
33553;SDS011;19885;42.208;24.952;2023-04-03T14:56:11;11.63;;;6.23;;
33553;SDS011;19885;42.208;24.952;2023-04-03T14:58:47;12.87;;;7.47;;
33553;SDS011;19885;42.208;24.952;2023-04-03T15:01:15;14.50;;;6.70;;
33553;SDS011;19885;42.208;24.952;2023-04-03T15:03:42;13.13;;;7.83;;
33553;SDS011;19885;42.208;24.952;2023-04-03T15:06:09;14.53;;;6.40;;
33553;SDS011;19885;42.208;24.952;2023-04-03T15:08:38;11.90;;;6.57;;
33553;SDS011;19885;42.208;24.952;2023-04-03T15:11:03;12.80;;;7.27;;
33553;SDS011;19885;42.208;24.952;2023-04-03T15:13:30;17.97;;;8.10;;
33553;SDS011;19885;42.208;24.952;2023-04-03T15:15:55;11.57;;;8.53;;
33553;SDS011;19885;42.208;24.952;2023-04-03T15:18:25;20.97;;;11.90;;
33553;SDS011;19885;42.208;24.952;2023-04-03T15:20:52;20.93;;;10.13;;
33553;SDS011;19885;42.208;24.952;2023-04-03T15:23:19;12.20;;;7.93;;
33553;SDS011;19885;42.208;24.952;2023-04-03T15:25:45;9.23;;;5.73;;
33553;SDS011;19885;42.208;24.952;2023-04-03T15:28:19;14.10;;;6.90;;
33553;SDS011;19885;42.208;24.952;2023-04-03T15:30:52;8.20;;;5.40;;
33553;SDS011;19885;42.208;24.952;2023-04-03T15:33:17;8.07;;;5.23;;
33553;SDS011;19885;42.208;24.952;2023-04-03T15:35:43;11.97;;;5.73;;
33553;SDS011;19885;42.208;24.952;2023-04-03T15:38:08;13.10;;;6.20;;
33553;SDS011;19885;42.208;24.952;2023-04-03T15:40:34;12.03;;;6.03;;
33553;SDS011;19885;42.208;24.952;2023-04-03T15:43:00;8.20;;;4.63;;
33553;SDS011;19885;42.208;24.952;2023-04-03T15:45:28;13.53;;;6.37;;
33553;SDS011;19885;42.208;24.952;2023-04-03T15:47:54;18.53;;;9.83;;
33553;SDS011;19885;42.208;24.952;2023-04-03T15:50:20;29.00;;;11.70;;
33553;SDS011;19885;42.208;24.952;2023-04-03T15:52:47;27.37;;;11.43;;
33553;SDS011;19885;42.208;24.952;2023-04-03T15:55:16;21.67;;;11.57;;
33553;SDS011;19885;42.208;24.952;2023-04-03T15:57:41;23.70;;;10.67;;
33553;SDS011;19885;42.208;24.952;2023-04-03T16:00:07;16.93;;;9.10;;
33553;SDS011;19885;42.208;24.952;2023-04-03T16:02:33;23.43;;;11.13;;
33553;SDS011;19885;42.208;24.952;2023-04-03T16:04:59;19.63;;;9.80;;
33553;SDS011;19885;42.208;24.952;2023-04-03T16:07:25;22.73;;;11.07;;
33553;SDS011;19885;42.208;24.952;2023-04-03T16:09:51;29.97;;;10.83;;
33553;SDS011;19885;42.208;24.952;2023-04-03T16:12:17;19.00;;;8.27;;
33553;SDS011;19885;42.208;24.952;2023-04-03T16:14:42;23.90;;;9.93;;
33553;SDS011;19885;42.208;24.952;2023-04-03T16:17:08;20.97;;;10.27;;
33553;SDS011;19885;42.208;24.952;2023-04-03T16:19:33;33.77;;;15.03;;
33553;SDS011;19885;42.208;24.952;2023-04-03T16:21:59;26.93;;;12.00;;
33553;SDS011;19885;42.208;24.952;2023-04-03T16:24:25;27.80;;;12.43;;
33553;SDS011;19885;42.208;24.952;2023-04-03T16:26:51;39.57;;;15.87;;
33553;SDS011;19885;42.208;24.952;2023-04-03T16:29:18;28.17;;;11.20;;
33553;SDS011;19885;42.208;24.952;2023-04-03T16:31:43;26.50;;;11.07;;
33553;SDS011;19885;42.208;24.952;2023-04-03T16:34:09;31.57;;;11.43;;
33553;SDS011;19885;42.208;24.952;2023-04-03T16:36:35;23.30;;;12.10;;
33553;SDS011;19885;42.208;24.952;2023-04-03T16:39:02;19.60;;;10.73;;
33553;SDS011;19885;42.208;24.952;2023-04-03T16:41:28;11.33;;;7.97;;
33553;SDS011;19885;42.208;24.952;2023-04-03T16:43:54;11.03;;;6.47;;
33553;SDS011;19885;42.208;24.952;2023-04-03T16:46:19;15.53;;;6.03;;
33553;SDS011;19885;42.208;24.952;2023-04-03T16:48:45;10.17;;;5.50;;
33553;SDS011;19885;42.208;24.952;2023-04-03T16:51:11;6.87;;;4.53;;
33553;SDS011;19885;42.208;24.952;2023-04-03T16:53:37;8.30;;;4.77;;
33553;SDS011;19885;42.208;24.952;2023-04-03T16:56:03;4.43;;;3.17;;
33553;SDS011;19885;42.208;24.952;2023-04-03T16:58:28;5.93;;;3.43;;
33553;SDS011;19885;42.208;24.952;2023-04-03T17:00:54;5.13;;;3.37;;
33553;SDS011;19885;42.208;24.952;2023-04-03T17:03:20;4.80;;;3.43;;
33553;SDS011;19885;42.208;24.952;2023-04-03T17:05:48;8.50;;;4.50;;
33553;SDS011;19885;42.208;24.952;2023-04-03T17:08:13;8.23;;;4.43;;
33553;SDS011;19885;42.208;24.952;2023-04-03T17:10:41;6.60;;;3.20;;
33553;SDS011;19885;42.208;24.952;2023-04-03T17:13:07;7.17;;;3.43;;
33553;SDS011;19885;42.208;24.952;2023-04-03T17:15:33;5.83;;;3.70;;
33553;SDS011;19885;42.208;24.952;2023-04-03T17:17:59;9.97;;;4.33;;
33553;SDS011;19885;42.208;24.952;2023-04-03T17:20:26;5.47;;;3.83;;
33553;SDS011;19885;42.208;24.952;2023-04-03T17:22:52;4.90;;;3.13;;
33553;SDS011;19885;42.208;24.952;2023-04-03T17:25:19;5.67;;;3.67;;
33553;SDS011;19885;42.208;24.952;2023-04-03T17:27:44;15.30;;;6.57;;
33553;SDS011;19885;42.208;24.952;2023-04-03T17:30:10;9.53;;;4.43;;
33553;SDS011;19885;42.208;24.952;2023-04-03T17:32:36;11.83;;;3.90;;
33553;SDS011;19885;42.208;24.952;2023-04-03T17:35:02;4.03;;;2.83;;
33553;SDS011;19885;42.208;24.952;2023-04-03T17:37:28;8.60;;;3.77;;
33553;SDS011;19885;42.208;24.952;2023-04-03T17:39:53;11.47;;;5.40;;
33553;SDS011;19885;42.208;24.952;2023-04-03T17:42:20;10.63;;;5.77;;
33553;SDS011;19885;42.208;24.952;2023-04-03T17:44:45;16.17;;;6.83;;
33553;SDS011;19885;42.208;24.952;2023-04-03T17:47:11;10.53;;;5.50;;
33553;SDS011;19885;42.208;24.952;2023-04-03T17:49:37;17.73;;;7.27;;
33553;SDS011;19885;42.208;24.952;2023-04-03T17:52:02;9.93;;;5.03;;
33553;SDS011;19885;42.208;24.952;2023-04-03T17:54:28;9.33;;;4.77;;
33553;SDS011;19885;42.208;24.952;2023-04-03T17:56:53;8.50;;;5.33;;
33553;SDS011;19885;42.208;24.952;2023-04-03T17:59:19;7.30;;;4.17;;
33553;SDS011;19885;42.208;24.952;2023-04-03T18:01:45;8.17;;;4.77;;
33553;SDS011;19885;42.208;24.952;2023-04-03T18:04:11;7.77;;;4.87;;
33553;SDS011;19885;42.208;24.952;2023-04-03T18:06:39;5.33;;;4.13;;
33553;SDS011;19885;42.208;24.952;2023-04-03T18:09:50;5.73;;;4.77;;
33553;SDS011;19885;42.208;24.952;2023-04-03T18:11:59;7.57;;;5.07;;
33553;SDS011;19885;42.208;24.952;2023-04-03T18:14:27;7.93;;;4.23;;
33553;SDS011;19885;42.208;24.952;2023-04-03T18:16:53;6.83;;;4.60;;
33553;SDS011;19885;42.208;24.952;2023-04-03T18:19:21;8.43;;;4.73;;
33553;SDS011;19885;42.208;24.952;2023-04-03T18:21:50;9.67;;;4.67;;
33553;SDS011;19885;42.208;24.952;2023-04-03T18:24:20;8.23;;;4.90;;
33553;SDS011;19885;42.208;24.952;2023-04-03T18:26:49;6.30;;;4.73;;
33553;SDS011;19885;42.208;24.952;2023-04-03T18:29:17;8.30;;;5.10;;
33553;SDS011;19885;42.208;24.952;2023-04-03T18:31:45;8.67;;;5.80;;
33553;SDS011;19885;42.208;24.952;2023-04-03T18:34:13;12.43;;;6.57;;
33553;SDS011;19885;42.208;24.952;2023-04-03T18:36:39;20.87;;;10.90;;
33553;SDS011;19885;42.208;24.952;2023-04-03T18:39:04;38.57;;;19.57;;
33553;SDS011;19885;42.208;24.952;2023-04-03T18:41:32;42.43;;;23.67;;
33553;SDS011;19885;42.208;24.952;2023-04-03T18:44:01;15.87;;;9.37;;
33553;SDS011;19885;42.208;24.952;2023-04-03T18:46:31;14.03;;;6.63;;
33553;SDS011;19885;42.208;24.952;2023-04-03T18:48:57;9.60;;;7.10;;
33553;SDS011;19885;42.208;24.952;2023-04-03T18:51:23;12.40;;;8.47;;
33553;SDS011;19885;42.208;24.952;2023-04-03T18:53:50;11.90;;;7.90;;
33553;SDS011;19885;42.208;24.952;2023-04-03T18:56:15;9.47;;;6.37;;
33553;SDS011;19885;42.208;24.952;2023-04-03T18:58:41;9.70;;;6.60;;
33553;SDS011;19885;42.208;24.952;2023-04-03T19:01:07;9.63;;;7.67;;
33553;SDS011;19885;42.208;24.952;2023-04-03T19:03:34;13.90;;;6.53;;
33553;SDS011;19885;42.208;24.952;2023-04-03T19:06:04;10.97;;;6.80;;
33553;SDS011;19885;42.208;24.952;2023-04-03T19:08:30;7.97;;;6.53;;
33553;SDS011;19885;42.208;24.952;2023-04-03T19:10:57;8.13;;;6.50;;
33553;SDS011;19885;42.208;24.952;2023-04-03T19:13:22;11.00;;;6.60;;
33553;SDS011;19885;42.208;24.952;2023-04-03T19:15:48;8.37;;;6.93;;
33553;SDS011;19885;42.208;24.952;2023-04-03T19:18:14;10.20;;;7.10;;
33553;SDS011;19885;42.208;24.952;2023-04-03T19:20:40;8.97;;;6.93;;
33553;SDS011;19885;42.208;24.952;2023-04-03T19:23:05;9.93;;;7.73;;
33553;SDS011;19885;42.208;24.952;2023-04-03T19:25:32;11.27;;;7.17;;
33553;SDS011;19885;42.208;24.952;2023-04-03T19:27:58;11.50;;;7.33;;
33553;SDS011;19885;42.208;24.952;2023-04-03T19:30:24;10.70;;;8.00;;
33553;SDS011;19885;42.208;24.952;2023-04-03T19:32:50;12.07;;;7.93;;
33553;SDS011;19885;42.208;24.952;2023-04-03T19:35:16;11.33;;;8.13;;
33553;SDS011;19885;42.208;24.952;2023-04-03T19:37:42;14.00;;;9.10;;
33553;SDS011;19885;42.208;24.952;2023-04-03T19:40:08;10.70;;;7.47;;
33553;SDS011;19885;42.208;24.952;2023-04-03T19:42:34;11.23;;;7.70;;
33553;SDS011;19885;42.208;24.952;2023-04-03T19:45:04;12.13;;;8.03;;
33553;SDS011;19885;42.208;24.952;2023-04-03T19:47:32;13.07;;;8.00;;
33553;SDS011;19885;42.208;24.952;2023-04-03T19:49:59;12.53;;;8.10;;
33553;SDS011;19885;42.208;24.952;2023-04-03T19:52:24;9.97;;;7.90;;
33553;SDS011;19885;42.208;24.952;2023-04-03T19:54:50;12.40;;;8.03;;
33553;SDS011;19885;42.208;24.952;2023-04-03T19:57:16;11.23;;;7.50;;
33553;SDS011;19885;42.208;24.952;2023-04-03T19:59:42;12.53;;;8.20;;
33553;SDS011;19885;42.208;24.952;2023-04-03T20:02:07;9.77;;;7.47;;
33553;SDS011;19885;42.208;24.952;2023-04-03T20:04:33;16.00;;;7.43;;
33553;SDS011;19885;42.208;24.952;2023-04-03T20:06:59;12.67;;;8.07;;
33553;SDS011;19885;42.208;24.952;2023-04-03T20:09:25;10.90;;;8.43;;
33553;SDS011;19885;42.208;24.952;2023-04-03T20:11:51;10.23;;;7.57;;
33553;SDS011;19885;42.208;24.952;2023-04-03T20:14:17;11.63;;;7.93;;
33553;SDS011;19885;42.208;24.952;2023-04-03T20:16:43;13.67;;;8.30;;
33553;SDS011;19885;42.208;24.952;2023-04-03T20:19:09;12.07;;;7.70;;